sensor_id;sensor_type;location;lat;lon;timestamp;temperature;humidity
14079;DHT22;7115;50.150;8.568;2024-01-07T00:01:47;7.20;99.90
14079;DHT22;7115;50.150;8.568;2024-01-07T00:04:15;7.20;99.90
14079;DHT22;7115;50.150;8.568;2024-01-07T00:06:42;7.20;99.90
14079;DHT22;7115;50.150;8.568;2024-01-07T00:09:10;7.10;99.90
14079;DHT22;7115;50.150;8.568;2024-01-07T00:11:39;7.20;99.90
14079;DHT22;7115;50.150;8.568;2024-01-07T00:14:06;7.10;99.90
14079;DHT22;7115;50.150;8.568;2024-01-07T00:16:33;7.10;99.90
14079;DHT22;7115;50.150;8.568;2024-01-07T00:19:00;7.10;99.90
14079;DHT22;7115;50.150;8.568;2024-01-07T00:21:28;7.10;99.90
14079;DHT22;7115;50.150;8.568;2024-01-07T00:23:55;7.10;99.90
14079;DHT22;7115;50.150;8.568;2024-01-07T00:26:22;7.10;99.90
14079;DHT22;7115;50.150;8.568;2024-01-07T00:28:51;7.10;99.90
14079;DHT22;7115;50.150;8.568;2024-01-07T00:31:17;7.00;99.90
14079;DHT22;7115;50.150;8.568;2024-01-07T00:33:45;7.10;99.90
14079;DHT22;7115;50.150;8.568;2024-01-07T00:36:12;7.10;99.90
14079;DHT22;7115;50.150;8.568;2024-01-07T00:38:39;7.10;99.90
14079;DHT22;7115;50.150;8.568;2024-01-07T00:41:06;7.10;99.90
14079;DHT22;7115;50.150;8.568;2024-01-07T00:43:33;7.10;99.90
14079;DHT22;7115;50.150;8.568;2024-01-07T00:46:01;7.10;99.90
14079;DHT22;7115;50.150;8.568;2024-01-07T00:48:28;7.00;99.90
14079;DHT22;7115;50.150;8.568;2024-01-07T00:50:55;7.00;99.90
14079;DHT22;7115;50.150;8.568;2024-01-07T00:53:22;7.00;99.90
14079;DHT22;7115;50.150;8.568;2024-01-07T00:55:49;6.90;99.90
14079;DHT22;7115;50.150;8.568;2024-01-07T00:58:16;6.90;99.90
14079;DHT22;7115;50.150;8.568;2024-01-07T01:00:43;6.90;99.90
14079;DHT22;7115;50.150;8.568;2024-01-07T01:03:12;6.90;99.90
14079;DHT22;7115;50.150;8.568;2024-01-07T01:05:39;7.00;99.90
14079;DHT22;7115;50.150;8.568;2024-01-07T01:08:06;6.90;99.90
14079;DHT22;7115;50.150;8.568;2024-01-07T01:10:33;6.90;99.90
14079;DHT22;7115;50.150;8.568;2024-01-07T01:13:00;7.00;99.90
14079;DHT22;7115;50.150;8.568;2024-01-07T01:15:27;7.00;99.90
14079;DHT22;7115;50.150;8.568;2024-01-07T01:17:54;6.90;99.90
14079;DHT22;7115;50.150;8.568;2024-01-07T01:20:23;6.90;99.90
14079;DHT22;7115;50.150;8.568;2024-01-07T01:22:50;6.90;99.90
14079;DHT22;7115;50.150;8.568;2024-01-07T01:25:17;6.90;99.90
14079;DHT22;7115;50.150;8.568;2024-01-07T01:27:44;6.90;99.90
14079;DHT22;7115;50.150;8.568;2024-01-07T01:30:11;7.00;99.90
14079;DHT22;7115;50.150;8.568;2024-01-07T01:32:39;7.00;99.90
14079;DHT22;7115;50.150;8.568;2024-01-07T01:35:07;7.00;99.90
14079;DHT22;7115;50.150;8.568;2024-01-07T01:37:35;7.00;99.90
14079;DHT22;7115;50.150;8.568;2024-01-07T01:40:03;7.00;99.90
14079;DHT22;7115;50.150;8.568;2024-01-07T01:42:31;7.00;99.90
14079;DHT22;7115;50.150;8.568;2024-01-07T01:44:58;7.00;99.90
14079;DHT22;7115;50.150;8.568;2024-01-07T01:47:28;7.00;99.90
14079;DHT22;7115;50.150;8.568;2024-01-07T01:49:55;6.90;99.90
14079;DHT22;7115;50.150;8.568;2024-01-07T01:52:23;6.90;99.90
14079;DHT22;7115;50.150;8.568;2024-01-07T01:54:52;6.90;99.90
14079;DHT22;7115;50.150;8.568;2024-01-07T01:57:21;6.90;99.90
14079;DHT22;7115;50.150;8.568;2024-01-07T01:59:49;6.90;99.90
14079;DHT22;7115;50.150;8.568;2024-01-07T02:02:17;6.80;99.90
14079;DHT22;7115;50.150;8.568;2024-01-07T02:04:44;6.80;99.90
14079;DHT22;7115;50.150;8.568;2024-01-07T02:07:12;6.80;99.90
14079;DHT22;7115;50.150;8.568;2024-01-07T02:09:39;6.80;99.90
14079;DHT22;7115;50.150;8.568;2024-01-07T02:12:08;6.80;99.90
14079;DHT22;7115;50.150;8.568;2024-01-07T02:14:38;6.70;99.90
14079;DHT22;7115;50.150;8.568;2024-01-07T02:17:06;6.70;99.90
14079;DHT22;7115;50.150;8.568;2024-01-07T02:19:33;6.70;99.90
14079;DHT22;7115;50.150;8.568;2024-01-07T02:22:00;6.70;99.90
14079;DHT22;7115;50.150;8.568;2024-01-07T02:24:29;6.70;99.90
14079;DHT22;7115;50.150;8.568;2024-01-07T02:26:57;6.60;99.90
14079;DHT22;7115;50.150;8.568;2024-01-07T02:29:24;6.60;99.90
14079;DHT22;7115;50.150;8.568;2024-01-07T02:31:51;6.60;99.90
14079;DHT22;7115;50.150;8.568;2024-01-07T02:34:18;6.60;99.90
14079;DHT22;7115;50.150;8.568;2024-01-07T02:36:45;6.60;99.90
14079;DHT22;7115;50.150;8.568;2024-01-07T02:39:12;6.60;99.90
14079;DHT22;7115;50.150;8.568;2024-01-07T02:41:40;6.60;99.90
14079;DHT22;7115;50.150;8.568;2024-01-07T02:44:07;6.60;99.90
14079;DHT22;7115;50.150;8.568;2024-01-07T02:46:38;6.60;99.90
14079;DHT22;7115;50.150;8.568;2024-01-07T02:49:05;6.60;99.90
14079;DHT22;7115;50.150;8.568;2024-01-07T02:51:32;6.60;99.90
14079;DHT22;7115;50.150;8.568;2024-01-07T02:53:59;6.60;99.90
14079;DHT22;7115;50.150;8.568;2024-01-07T02:56:27;6.50;99.90
14079;DHT22;7115;50.150;8.568;2024-01-07T02:58:55;6.50;99.90
14079;DHT22;7115;50.150;8.568;2024-01-07T03:01:22;6.50;99.90
14079;DHT22;7115;50.150;8.568;2024-01-07T03:03:52;6.40;99.90
14079;DHT22;7115;50.150;8.568;2024-01-07T03:06:19;6.40;99.90
14079;DHT22;7115;50.150;8.568;2024-01-07T03:08:47;6.50;99.90
14079;DHT22;7115;50.150;8.568;2024-01-07T03:11:15;6.40;99.90
14079;DHT22;7115;50.150;8.568;2024-01-07T03:13:42;6.40;99.90
14079;DHT22;7115;50.150;8.568;2024-01-07T03:16:19;6.40;99.90
14079;DHT22;7115;50.150;8.568;2024-01-07T03:18:46;6.50;99.90
14079;DHT22;7115;50.150;8.568;2024-01-07T03:21:17;6.50;99.90
14079;DHT22;7115;50.150;8.568;2024-01-07T03:23:44;6.40;99.90
14079;DHT22;7115;50.150;8.568;2024-01-07T03:26:12;6.50;99.90
14079;DHT22;7115;50.150;8.568;2024-01-07T03:28:39;6.40;99.90
14079;DHT22;7115;50.150;8.568;2024-01-07T03:31:10;6.40;99.90
14079;DHT22;7115;50.150;8.568;2024-01-07T03:33:37;6.40;99.90
14079;DHT22;7115;50.150;8.568;2024-01-07T03:36:07;6.40;99.90
14079;DHT22;7115;50.150;8.568;2024-01-07T03:38:34;6.40;99.90
14079;DHT22;7115;50.150;8.568;2024-01-07T03:41:02;6.30;99.90
14079;DHT22;7115;50.150;8.568;2024-01-07T03:43:29;6.30;99.90
14079;DHT22;7115;50.150;8.568;2024-01-07T03:45:56;6.20;99.90
14079;DHT22;7115;50.150;8.568;2024-01-07T03:48:24;6.20;99.90
14079;DHT22;7115;50.150;8.568;2024-01-07T03:50:52;6.20;99.90
14079;DHT22;7115;50.150;8.568;2024-01-07T03:53:19;6.10;99.90
14079;DHT22;7115;50.150;8.568;2024-01-07T03:55:46;6.10;99.90
14079;DHT22;7115;50.150;8.568;2024-01-07T03:58:13;6.10;99.90
14079;DHT22;7115;50.150;8.568;2024-01-07T04:00:40;6.00;99.90
14079;DHT22;7115;50.150;8.568;2024-01-07T04:03:07;6.00;99.90
14079;DHT22;7115;50.150;8.568;2024-01-07T04:05:36;6.00;99.90
14079;DHT22;7115;50.150;8.568;2024-01-07T04:08:04;6.10;99.90
14079;DHT22;7115;50.150;8.568;2024-01-07T04:10:31;6.10;99.90
14079;DHT22;7115;50.150;8.568;2024-01-07T04:12:58;6.10;99.90
14079;DHT22;7115;50.150;8.568;2024-01-07T04:15:26;6.20;99.90
14079;DHT22;7115;50.150;8.568;2024-01-07T04:17:53;6.20;99.90
14079;DHT22;7115;50.150;8.568;2024-01-07T04:20:20;6.20;99.90
14079;DHT22;7115;50.150;8.568;2024-01-07T04:22:48;6.20;99.90
14079;DHT22;7115;50.150;8.568;2024-01-07T04:25:15;6.10;99.90
14079;DHT22;7115;50.150;8.568;2024-01-07T04:27:43;6.20;99.90
14079;DHT22;7115;50.150;8.568;2024-01-07T04:30:10;6.20;99.90
14079;DHT22;7115;50.150;8.568;2024-01-07T04:32:37;6.10;99.90
14079;DHT22;7115;50.150;8.568;2024-01-07T04:35:04;6.10;99.90
14079;DHT22;7115;50.150;8.568;2024-01-07T04:37:33;6.10;99.90
14079;DHT22;7115;50.150;8.568;2024-01-07T04:40:01;6.10;99.90
14079;DHT22;7115;50.150;8.568;2024-01-07T04:42:29;6.10;99.90
14079;DHT22;7115;50.150;8.568;2024-01-07T04:44:56;6.10;99.90
14079;DHT22;7115;50.150;8.568;2024-01-07T04:47:28;6.10;99.90
14079;DHT22;7115;50.150;8.568;2024-01-07T04:49:56;6.10;99.90
14079;DHT22;7115;50.150;8.568;2024-01-07T04:52:23;6.00;99.90
14079;DHT22;7115;50.150;8.568;2024-01-07T04:54:51;6.00;99.90
14079;DHT22;7115;50.150;8.568;2024-01-07T04:57:20;6.00;99.90
14079;DHT22;7115;50.150;8.568;2024-01-07T04:59:47;6.00;99.90
14079;DHT22;7115;50.150;8.568;2024-01-07T05:02:15;6.00;99.90
14079;DHT22;7115;50.150;8.568;2024-01-07T05:04:42;6.00;99.90
14079;DHT22;7115;50.150;8.568;2024-01-07T05:07:09;6.00;99.90
14079;DHT22;7115;50.150;8.568;2024-01-07T05:09:36;6.00;99.90
14079;DHT22;7115;50.150;8.568;2024-01-07T05:12:04;6.00;99.90
14079;DHT22;7115;50.150;8.568;2024-01-07T05:14:32;6.10;99.90
14079;DHT22;7115;50.150;8.568;2024-01-07T05:16:59;6.10;99.90
14079;DHT22;7115;50.150;8.568;2024-01-07T05:19:26;6.20;99.90
14079;DHT22;7115;50.150;8.568;2024-01-07T05:21:54;6.20;99.90
14079;DHT22;7115;50.150;8.568;2024-01-07T05:24:21;6.20;99.90
14079;DHT22;7115;50.150;8.568;2024-01-07T05:26:48;6.30;99.90
14079;DHT22;7115;50.150;8.568;2024-01-07T05:29:15;6.30;99.90
14079;DHT22;7115;50.150;8.568;2024-01-07T05:31:43;6.30;99.90
14079;DHT22;7115;50.150;8.568;2024-01-07T05:34:10;6.30;99.90
14079;DHT22;7115;50.150;8.568;2024-01-07T05:36:37;6.30;99.90
14079;DHT22;7115;50.150;8.568;2024-01-07T05:39:04;6.30;99.90
14079;DHT22;7115;50.150;8.568;2024-01-07T05:41:33;6.30;99.90
14079;DHT22;7115;50.150;8.568;2024-01-07T05:44:00;6.30;99.90
14079;DHT22;7115;50.150;8.568;2024-01-07T05:46:27;6.30;99.90
14079;DHT22;7115;50.150;8.568;2024-01-07T05:48:55;6.20;99.90
14079;DHT22;7115;50.150;8.568;2024-01-07T05:51:22;6.20;99.90
14079;DHT22;7115;50.150;8.568;2024-01-07T05:53:49;6.20;99.90
14079;DHT22;7115;50.150;8.568;2024-01-07T05:56:16;6.20;99.90
14079;DHT22;7115;50.150;8.568;2024-01-07T05:58:43;6.20;99.90
14079;DHT22;7115;50.150;8.568;2024-01-07T06:01:10;6.20;99.90
14079;DHT22;7115;50.150;8.568;2024-01-07T06:03:38;6.20;99.90
14079;DHT22;7115;50.150;8.568;2024-01-07T06:06:06;6.20;99.90
14079;DHT22;7115;50.150;8.568;2024-01-07T06:08:33;6.20;99.90
14079;DHT22;7115;50.150;8.568;2024-01-07T06:11:00;6.20;99.90
14079;DHT22;7115;50.150;8.568;2024-01-07T06:13:27;6.20;99.90
14079;DHT22;7115;50.150;8.568;2024-01-07T06:15:54;6.20;99.90
14079;DHT22;7115;50.150;8.568;2024-01-07T06:18:21;6.20;99.90
14079;DHT22;7115;50.150;8.568;2024-01-07T06:20:48;6.10;99.90
14079;DHT22;7115;50.150;8.568;2024-01-07T06:23:17;6.10;99.90
14079;DHT22;7115;50.150;8.568;2024-01-07T06:25:44;6.00;99.90
14079;DHT22;7115;50.150;8.568;2024-01-07T06:28:11;6.00;99.90
14079;DHT22;7115;50.150;8.568;2024-01-07T06:30:38;5.90;99.90
14079;DHT22;7115;50.150;8.568;2024-01-07T06:33:05;6.00;99.90
14079;DHT22;7115;50.150;8.568;2024-01-07T06:35:32;5.90;99.90
14079;DHT22;7115;50.150;8.568;2024-01-07T06:38:00;5.90;99.90
14079;DHT22;7115;50.150;8.568;2024-01-07T06:40:28;5.90;99.90
14079;DHT22;7115;50.150;8.568;2024-01-07T06:42:55;5.80;99.90
14079;DHT22;7115;50.150;8.568;2024-01-07T06:45:23;5.70;99.90
14079;DHT22;7115;50.150;8.568;2024-01-07T06:47:50;5.70;99.90
14079;DHT22;7115;50.150;8.568;2024-01-07T06:50:17;5.70;99.90
14079;DHT22;7115;50.150;8.568;2024-01-07T06:52:46;5.70;99.90
14079;DHT22;7115;50.150;8.568;2024-01-07T06:55:13;5.70;99.90
14079;DHT22;7115;50.150;8.568;2024-01-07T06:57:42;5.70;99.90
14079;DHT22;7115;50.150;8.568;2024-01-07T07:00:09;5.70;99.90
14079;DHT22;7115;50.150;8.568;2024-01-07T07:02:37;5.60;99.90
14079;DHT22;7115;50.150;8.568;2024-01-07T07:05:04;5.60;99.90
14079;DHT22;7115;50.150;8.568;2024-01-07T07:07:31;5.60;99.90
14079;DHT22;7115;50.150;8.568;2024-01-07T07:09:58;5.60;99.90
14079;DHT22;7115;50.150;8.568;2024-01-07T07:12:25;5.60;99.90
14079;DHT22;7115;50.150;8.568;2024-01-07T07:14:53;5.70;99.90
14079;DHT22;7115;50.150;8.568;2024-01-07T07:17:20;5.70;99.90
14079;DHT22;7115;50.150;8.568;2024-01-07T07:19:47;5.70;99.90
14079;DHT22;7115;50.150;8.568;2024-01-07T07:22:14;5.60;99.90
14079;DHT22;7115;50.150;8.568;2024-01-07T07:24:42;5.60;99.90
14079;DHT22;7115;50.150;8.568;2024-01-07T07:27:09;5.60;99.90
14079;DHT22;7115;50.150;8.568;2024-01-07T07:29:36;5.60;99.90
14079;DHT22;7115;50.150;8.568;2024-01-07T07:32:05;5.50;99.90
14079;DHT22;7115;50.150;8.568;2024-01-07T07:34:34;5.50;99.90
14079;DHT22;7115;50.150;8.568;2024-01-07T07:37:01;5.50;99.90
14079;DHT22;7115;50.150;8.568;2024-01-07T07:39:27;5.50;99.90
14079;DHT22;7115;50.150;8.568;2024-01-07T07:41:55;5.50;99.90
14079;DHT22;7115;50.150;8.568;2024-01-07T07:44:22;5.40;99.90
14079;DHT22;7115;50.150;8.568;2024-01-07T07:46:49;5.40;99.90
14079;DHT22;7115;50.150;8.568;2024-01-07T07:49:18;5.40;99.90
14079;DHT22;7115;50.150;8.568;2024-01-07T07:51:46;5.30;99.90
14079;DHT22;7115;50.150;8.568;2024-01-07T07:54:14;5.30;99.90
14079;DHT22;7115;50.150;8.568;2024-01-07T07:56:42;5.30;99.90
14079;DHT22;7115;50.150;8.568;2024-01-07T07:59:09;5.30;99.90
14079;DHT22;7115;50.150;8.568;2024-01-07T08:01:36;5.30;99.90
14079;DHT22;7115;50.150;8.568;2024-01-07T08:04:03;5.30;99.90
14079;DHT22;7115;50.150;8.568;2024-01-07T08:06:33;5.30;99.90
14079;DHT22;7115;50.150;8.568;2024-01-07T08:09:00;5.40;99.90
14079;DHT22;7115;50.150;8.568;2024-01-07T08:11:27;5.30;99.90
14079;DHT22;7115;50.150;8.568;2024-01-07T08:13:56;5.30;99.90
14079;DHT22;7115;50.150;8.568;2024-01-07T08:16:24;5.40;99.90
14079;DHT22;7115;50.150;8.568;2024-01-07T08:18:51;5.40;99.90
14079;DHT22;7115;50.150;8.568;2024-01-07T08:21:18;5.40;99.90
14079;DHT22;7115;50.150;8.568;2024-01-07T08:23:46;5.40;99.90
14079;DHT22;7115;50.150;8.568;2024-01-07T08:26:18;5.50;99.90
14079;DHT22;7115;50.150;8.568;2024-01-07T08:28:45;5.50;99.90
14079;DHT22;7115;50.150;8.568;2024-01-07T08:31:12;5.40;99.90
14079;DHT22;7115;50.150;8.568;2024-01-07T08:33:39;5.40;99.90
14079;DHT22;7115;50.150;8.568;2024-01-07T08:36:07;5.40;99.90
14079;DHT22;7115;50.150;8.568;2024-01-07T08:38:34;5.40;99.90
14079;DHT22;7115;50.150;8.568;2024-01-07T08:41:03;5.40;99.90
14079;DHT22;7115;50.150;8.568;2024-01-07T08:43:31;5.40;99.90
14079;DHT22;7115;50.150;8.568;2024-01-07T08:45:58;5.40;99.90
14079;DHT22;7115;50.150;8.568;2024-01-07T08:48:25;5.30;99.90
14079;DHT22;7115;50.150;8.568;2024-01-07T08:50:53;5.30;99.90
14079;DHT22;7115;50.150;8.568;2024-01-07T08:53:20;5.30;99.90
14079;DHT22;7115;50.150;8.568;2024-01-07T08:55:49;5.30;99.90
14079;DHT22;7115;50.150;8.568;2024-01-07T08:58:17;5.30;99.90
14079;DHT22;7115;50.150;8.568;2024-01-07T09:00:44;5.30;99.90
14079;DHT22;7115;50.150;8.568;2024-01-07T09:03:11;5.30;99.90
14079;DHT22;7115;50.150;8.568;2024-01-07T09:05:38;5.30;99.90
14079;DHT22;7115;50.150;8.568;2024-01-07T09:08:06;5.20;99.90
14079;DHT22;7115;50.150;8.568;2024-01-07T09:10:33;5.20;99.90
14079;DHT22;7115;50.150;8.568;2024-01-07T09:13:00;5.10;99.90
14079;DHT22;7115;50.150;8.568;2024-01-07T09:15:30;5.20;99.90
14079;DHT22;7115;50.150;8.568;2024-01-07T09:17:57;5.10;99.90
14079;DHT22;7115;50.150;8.568;2024-01-07T09:20:24;5.10;99.90
14079;DHT22;7115;50.150;8.568;2024-01-07T09:22:52;5.10;99.90
14079;DHT22;7115;50.150;8.568;2024-01-07T09:25:19;5.10;99.90
14079;DHT22;7115;50.150;8.568;2024-01-07T09:27:46;5.10;99.90
14079;DHT22;7115;50.150;8.568;2024-01-07T09:30:13;5.10;99.90
14079;DHT22;7115;50.150;8.568;2024-01-07T09:32:43;5.10;99.90
14079;DHT22;7115;50.150;8.568;2024-01-07T09:35:15;5.10;99.90
14079;DHT22;7115;50.150;8.568;2024-01-07T09:37:45;5.20;99.90
14079;DHT22;7115;50.150;8.568;2024-01-07T09:40:12;5.20;99.90
14079;DHT22;7115;50.150;8.568;2024-01-07T09:42:43;5.20;99.90
14079;DHT22;7115;50.150;8.568;2024-01-07T09:45:13;5.20;99.90
14079;DHT22;7115;50.150;8.568;2024-01-07T09:47:40;5.20;99.90
14079;DHT22;7115;50.150;8.568;2024-01-07T09:50:09;5.30;99.90
14079;DHT22;7115;50.150;8.568;2024-01-07T09:52:38;5.20;99.90
14079;DHT22;7115;50.150;8.568;2024-01-07T09:55:09;5.20;99.90
14079;DHT22;7115;50.150;8.568;2024-01-07T09:57:37;5.30;99.90
14079;DHT22;7115;50.150;8.568;2024-01-07T10:00:08;5.20;99.90
14079;DHT22;7115;50.150;8.568;2024-01-07T10:02:35;5.20;99.90
14079;DHT22;7115;50.150;8.568;2024-01-07T10:05:03;5.20;99.90
14079;DHT22;7115;50.150;8.568;2024-01-07T10:07:31;5.20;99.90
14079;DHT22;7115;50.150;8.568;2024-01-07T10:10:11;5.20;99.90
14079;DHT22;7115;50.150;8.568;2024-01-07T10:12:39;5.20;99.90
14079;DHT22;7115;50.150;8.568;2024-01-07T10:15:06;5.20;99.90
14079;DHT22;7115;50.150;8.568;2024-01-07T10:17:34;5.20;99.90
14079;DHT22;7115;50.150;8.568;2024-01-07T10:20:01;5.20;99.90
14079;DHT22;7115;50.150;8.568;2024-01-07T10:22:32;5.20;99.90
14079;DHT22;7115;50.150;8.568;2024-01-07T10:24:59;5.20;99.90
14079;DHT22;7115;50.150;8.568;2024-01-07T10:27:26;5.10;99.90
14079;DHT22;7115;50.150;8.568;2024-01-07T10:29:53;5.00;99.90
14079;DHT22;7115;50.150;8.568;2024-01-07T10:32:22;5.00;99.90
14079;DHT22;7115;50.150;8.568;2024-01-07T10:34:50;5.00;99.90
14079;DHT22;7115;50.150;8.568;2024-01-07T10:37:19;5.00;99.90
14079;DHT22;7115;50.150;8.568;2024-01-07T10:39:48;5.00;99.90
14079;DHT22;7115;50.150;8.568;2024-01-07T10:42:17;5.00;99.90
14079;DHT22;7115;50.150;8.568;2024-01-07T10:44:45;5.10;99.90
14079;DHT22;7115;50.150;8.568;2024-01-07T10:47:13;5.10;99.90
14079;DHT22;7115;50.150;8.568;2024-01-07T10:49:44;5.10;99.90
14079;DHT22;7115;50.150;8.568;2024-01-07T10:52:11;5.10;99.90
14079;DHT22;7115;50.150;8.568;2024-01-07T10:54:39;5.20;99.90
14079;DHT22;7115;50.150;8.568;2024-01-07T10:57:20;5.20;99.90
14079;DHT22;7115;50.150;8.568;2024-01-07T10:59:50;5.30;99.90
14079;DHT22;7115;50.150;8.568;2024-01-07T11:02:21;5.30;99.90
14079;DHT22;7115;50.150;8.568;2024-01-07T11:04:54;5.30;99.90
14079;DHT22;7115;50.150;8.568;2024-01-07T11:07:29;5.30;99.90
14079;DHT22;7115;50.150;8.568;2024-01-07T11:10:08;5.20;99.90
14079;DHT22;7115;50.150;8.568;2024-01-07T11:12:37;5.20;99.90
14079;DHT22;7115;50.150;8.568;2024-01-07T11:15:05;5.10;99.90
14079;DHT22;7115;50.150;8.568;2024-01-07T11:17:41;5.10;99.90
14079;DHT22;7115;50.150;8.568;2024-01-07T11:20:17;5.10;99.90
14079;DHT22;7115;50.150;8.568;2024-01-07T11:22:45;5.10;99.90
14079;DHT22;7115;50.150;8.568;2024-01-07T11:25:30;5.20;99.90
14079;DHT22;7115;50.150;8.568;2024-01-07T11:28:01;5.20;99.90
14079;DHT22;7115;50.150;8.568;2024-01-07T11:30:28;5.10;99.90
14079;DHT22;7115;50.150;8.568;2024-01-07T11:32:57;5.00;99.90
14079;DHT22;7115;50.150;8.568;2024-01-07T11:35:55;5.00;99.90
14079;DHT22;7115;50.150;8.568;2024-01-07T11:38:25;5.00;99.90
14079;DHT22;7115;50.150;8.568;2024-01-07T11:40:52;5.00;99.90
14079;DHT22;7115;50.150;8.568;2024-01-07T11:43:19;4.90;99.90
14079;DHT22;7115;50.150;8.568;2024-01-07T11:45:49;4.90;99.90
14079;DHT22;7115;50.150;8.568;2024-01-07T11:48:16;4.90;99.90
14079;DHT22;7115;50.150;8.568;2024-01-07T11:50:43;4.90;99.90
14079;DHT22;7115;50.150;8.568;2024-01-07T11:53:15;4.90;99.90
14079;DHT22;7115;50.150;8.568;2024-01-07T11:55:42;5.00;99.90
14079;DHT22;7115;50.150;8.568;2024-01-07T11:58:11;5.00;99.90
14079;DHT22;7115;50.150;8.568;2024-01-07T12:00:38;5.00;99.90
14079;DHT22;7115;50.150;8.568;2024-01-07T12:03:05;4.90;99.90
14079;DHT22;7115;50.150;8.568;2024-01-07T12:05:32;4.90;99.90
14079;DHT22;7115;50.150;8.568;2024-01-07T12:08:00;4.90;99.90
14079;DHT22;7115;50.150;8.568;2024-01-07T12:10:29;4.90;99.90
14079;DHT22;7115;50.150;8.568;2024-01-07T12:12:56;4.80;99.90
14079;DHT22;7115;50.150;8.568;2024-01-07T12:15:23;4.80;99.90
14079;DHT22;7115;50.150;8.568;2024-01-07T12:17:58;4.80;99.90
14079;DHT22;7115;50.150;8.568;2024-01-07T12:20:26;4.80;99.90
14079;DHT22;7115;50.150;8.568;2024-01-07T12:22:56;4.80;99.90
14079;DHT22;7115;50.150;8.568;2024-01-07T12:25:24;4.80;99.90
14079;DHT22;7115;50.150;8.568;2024-01-07T12:27:52;4.80;99.90
14079;DHT22;7115;50.150;8.568;2024-01-07T12:30:20;4.80;99.90
14079;DHT22;7115;50.150;8.568;2024-01-07T12:32:47;4.70;99.90
14079;DHT22;7115;50.150;8.568;2024-01-07T12:35:15;4.70;99.90
14079;DHT22;7115;50.150;8.568;2024-01-07T12:37:43;4.60;99.90
14079;DHT22;7115;50.150;8.568;2024-01-07T12:40:12;4.60;99.90
14079;DHT22;7115;50.150;8.568;2024-01-07T12:42:39;4.70;99.90
14079;DHT22;7115;50.150;8.568;2024-01-07T12:45:14;4.60;99.90
14079;DHT22;7115;50.150;8.568;2024-01-07T12:47:42;4.60;99.90
14079;DHT22;7115;50.150;8.568;2024-01-07T12:50:10;4.60;99.90
14079;DHT22;7115;50.150;8.568;2024-01-07T12:52:38;4.60;99.90
14079;DHT22;7115;50.150;8.568;2024-01-07T12:55:07;4.50;99.90
14079;DHT22;7115;50.150;8.568;2024-01-07T12:57:37;4.40;99.90
14079;DHT22;7115;50.150;8.568;2024-01-07T13:00:05;4.40;99.90
14079;DHT22;7115;50.150;8.568;2024-01-07T13:02:36;4.40;99.90
14079;DHT22;7115;50.150;8.568;2024-01-07T13:05:04;4.30;99.90
14079;DHT22;7115;50.150;8.568;2024-01-07T13:07:32;4.30;99.90
14079;DHT22;7115;50.150;8.568;2024-01-07T13:09:59;4.30;99.90
14079;DHT22;7115;50.150;8.568;2024-01-07T13:12:27;4.30;99.90
14079;DHT22;7115;50.150;8.568;2024-01-07T13:15:09;4.30;99.90
14079;DHT22;7115;50.150;8.568;2024-01-07T13:17:38;4.30;99.90
14079;DHT22;7115;50.150;8.568;2024-01-07T13:20:07;4.30;99.90
14079;DHT22;7115;50.150;8.568;2024-01-07T13:22:38;4.30;99.90
14079;DHT22;7115;50.150;8.568;2024-01-07T13:25:06;4.30;99.90
14079;DHT22;7115;50.150;8.568;2024-01-07T13:27:33;4.20;99.90
14079;DHT22;7115;50.150;8.568;2024-01-07T13:30:04;4.20;99.90
14079;DHT22;7115;50.150;8.568;2024-01-07T13:32:32;4.20;99.90
14079;DHT22;7115;50.150;8.568;2024-01-07T13:35:07;4.10;99.90
14079;DHT22;7115;50.150;8.568;2024-01-07T13:37:37;4.10;99.90
14079;DHT22;7115;50.150;8.568;2024-01-07T13:40:05;4.10;99.90
14079;DHT22;7115;50.150;8.568;2024-01-07T13:42:32;4.00;99.90
14079;DHT22;7115;50.150;8.568;2024-01-07T13:45:00;4.00;99.90
14079;DHT22;7115;50.150;8.568;2024-01-07T13:47:27;4.00;99.90
14079;DHT22;7115;50.150;8.568;2024-01-07T13:49:54;4.00;99.90
14079;DHT22;7115;50.150;8.568;2024-01-07T13:52:23;4.00;99.90
14079;DHT22;7115;50.150;8.568;2024-01-07T13:54:50;4.00;99.90
14079;DHT22;7115;50.150;8.568;2024-01-07T13:57:17;4.00;99.90
14079;DHT22;7115;50.150;8.568;2024-01-07T13:59:44;3.90;99.90
14079;DHT22;7115;50.150;8.568;2024-01-07T14:02:11;3.90;99.90
14079;DHT22;7115;50.150;8.568;2024-01-07T14:04:39;3.90;99.90
14079;DHT22;7115;50.150;8.568;2024-01-07T14:07:06;3.80;99.90
14079;DHT22;7115;50.150;8.568;2024-01-07T14:09:35;3.80;99.90
14079;DHT22;7115;50.150;8.568;2024-01-07T14:12:02;3.70;99.90
14079;DHT22;7115;50.150;8.568;2024-01-07T14:14:29;3.70;99.90
14079;DHT22;7115;50.150;8.568;2024-01-07T14:16:56;3.60;99.90
14079;DHT22;7115;50.150;8.568;2024-01-07T14:19:23;3.60;99.90
14079;DHT22;7115;50.150;8.568;2024-01-07T14:21:50;3.60;99.90
14079;DHT22;7115;50.150;8.568;2024-01-07T14:24:19;3.50;99.90
14079;DHT22;7115;50.150;8.568;2024-01-07T14:26:48;3.60;99.90
14079;DHT22;7115;50.150;8.568;2024-01-07T14:29:15;3.50;99.90
14079;DHT22;7115;50.150;8.568;2024-01-07T14:31:44;3.50;99.90
14079;DHT22;7115;50.150;8.568;2024-01-07T14:34:13;3.50;99.90
14079;DHT22;7115;50.150;8.568;2024-01-07T14:36:40;3.40;99.90
14079;DHT22;7115;50.150;8.568;2024-01-07T14:39:10;3.40;99.90
14079;DHT22;7115;50.150;8.568;2024-01-07T14:41:37;3.20;99.90
14079;DHT22;7115;50.150;8.568;2024-01-07T14:44:06;3.30;99.90
14079;DHT22;7115;50.150;8.568;2024-01-07T14:46:38;3.20;99.90
14079;DHT22;7115;50.150;8.568;2024-01-07T14:49:05;3.30;99.90
14079;DHT22;7115;50.150;8.568;2024-01-07T14:51:32;3.20;99.90
14079;DHT22;7115;50.150;8.568;2024-01-07T14:53:59;3.20;99.90
14079;DHT22;7115;50.150;8.568;2024-01-07T14:56:27;3.30;99.90
14079;DHT22;7115;50.150;8.568;2024-01-07T14:58:54;3.30;99.90
14079;DHT22;7115;50.150;8.568;2024-01-07T15:01:23;3.20;99.90
14079;DHT22;7115;50.150;8.568;2024-01-07T15:03:51;3.10;99.90
14079;DHT22;7115;50.150;8.568;2024-01-07T15:06:18;3.10;99.90
14079;DHT22;7115;50.150;8.568;2024-01-07T15:08:45;3.00;99.90
14079;DHT22;7115;50.150;8.568;2024-01-07T15:11:14;3.00;99.90
14079;DHT22;7115;50.150;8.568;2024-01-07T15:13:42;2.90;99.90
14079;DHT22;7115;50.150;8.568;2024-01-07T15:16:10;2.90;99.90
14079;DHT22;7115;50.150;8.568;2024-01-07T15:18:39;2.90;99.90
14079;DHT22;7115;50.150;8.568;2024-01-07T15:21:06;2.90;99.90
14079;DHT22;7115;50.150;8.568;2024-01-07T15:23:33;2.80;99.90
14079;DHT22;7115;50.150;8.568;2024-01-07T15:26:00;2.80;99.90
14079;DHT22;7115;50.150;8.568;2024-01-07T15:28:27;2.80;99.90
14079;DHT22;7115;50.150;8.568;2024-01-07T15:30:54;2.80;99.90
14079;DHT22;7115;50.150;8.568;2024-01-07T15:33:22;2.80;99.90
14079;DHT22;7115;50.150;8.568;2024-01-07T15:35:51;2.70;99.90
14079;DHT22;7115;50.150;8.568;2024-01-07T15:38:18;2.60;99.90
14079;DHT22;7115;50.150;8.568;2024-01-07T15:40:45;2.50;99.90
14079;DHT22;7115;50.150;8.568;2024-01-07T15:43:12;2.50;99.90
14079;DHT22;7115;50.150;8.568;2024-01-07T15:45:40;2.40;99.90
14079;DHT22;7115;50.150;8.568;2024-01-07T15:48:07;2.40;99.90
14079;DHT22;7115;50.150;8.568;2024-01-07T15:50:34;2.40;99.90
14079;DHT22;7115;50.150;8.568;2024-01-07T15:53:03;2.30;99.90
14079;DHT22;7115;50.150;8.568;2024-01-07T15:55:34;2.30;99.90
14079;DHT22;7115;50.150;8.568;2024-01-07T15:58:01;2.30;99.90
14079;DHT22;7115;50.150;8.568;2024-01-07T16:00:29;2.30;99.90
14079;DHT22;7115;50.150;8.568;2024-01-07T16:02:56;2.30;99.90
14079;DHT22;7115;50.150;8.568;2024-01-07T16:05:25;2.20;99.90
14079;DHT22;7115;50.150;8.568;2024-01-07T16:07:52;2.20;99.90